Time;durP1;ratioP1;P1;durP2;ratioP2;P2;SDS_P1;SDS_P2;PMS_P1;PMS_P2;Temp;Humidity;BMP_temperature;BMP_pressure;BME280_temperature;BME280_humidity;BME280_pressure;Samples;Min_cycle;Max_cycle;Signal;HPM_P1;HPM_P2
2024/03/26 00:00:10;;;;;;;14.63;4.00;;;;;;;;;;6215431;23;20063;-93
2024/03/26 00:02:36;;;;;;;6.13;2.83;;;;;;;;;;6215327;23;20300;-93
2024/03/26 00:05:01;;;;;;;12.38;3.00;;;;;;;;;;6188037;23;20079;-94
2024/03/26 00:07:27;;;;;;;7.25;3.20;;;;;;;;;;6188152;23;20043;-93
2024/03/26 00:09:52;;;;;;;15.40;4.00;;;;;;;;;;6215779;23;20319;-93
2024/03/26 00:12:17;;;;;;;12.60;3.70;;;;;;;;;;6215242;23;20001;-93
2024/03/26 00:14:42;;;;;;;12.03;3.70;;;;;;;;;;6188862;23;20221;-93
2024/03/26 00:17:07;;;;;;;12.95;3.83;;;;;;;;;;6188734;23;20238;-92
2024/03/26 00:19:33;;;;;;;7.30;3.40;;;;;;;;;;6188569;23;20474;-93
2024/03/26 00:21:58;;;;;;;10.45;3.92;;;;;;;;;;6188423;23;20727;-94
2024/03/26 00:24:24;;;;;;;9.30;3.45;;;;;;;;;;6188961;23;20174;-92
2024/03/26 00:26:49;;;;;;;7.82;2.83;;;;;;;;;;6188199;23;20024;-92
2024/03/26 00:29:14;;;;;;;10.18;4.13;;;;;;;;;;6215184;23;20016;-92
2024/03/26 00:31:39;;;;;;;8.93;3.13;;;;;;;;;;6213766;23;20001;-93
2024/03/26 00:34:05;;;;;;;8.95;3.13;;;;;;;;;;6214975;23;19992;-93
2024/03/26 00:36:31;;;;;;;16.50;3.78;;;;;;;;;;6212523;23;20035;-93
2024/03/26 00:38:56;;;;;;;16.63;3.13;;;;;;;;;;6215120;23;20046;-93
2024/03/26 00:41:21;;;;;;;15.50;3.70;;;;;;;;;;6188635;23;20415;-93
2024/03/26 00:43:46;;;;;;;10.87;3.40;;;;;;;;;;6188306;23;20404;-93
2024/03/26 00:46:11;;;;;;;14.87;3.70;;;;;;;;;;6188188;23;20357;-93
2024/03/26 00:48:37;;;;;;;11.60;3.17;;;;;;;;;;6188233;23;20253;-93
2024/03/26 00:51:02;;;;;;;12.43;3.22;;;;;;;;;;6187841;23;20092;-94
2024/03/26 00:53:27;;;;;;;12.38;3.83;;;;;;;;;;6212740;23;20047;-94
2024/03/26 00:55:53;;;;;;;8.25;2.97;;;;;;;;;;6188059;23;19997;-92
2024/03/26 00:58:18;;;;;;;9.70;3.57;;;;;;;;;;6188229;23;20005;-93
2024/03/26 01:00:43;;;;;;;9.73;3.30;;;;;;;;;;6214757;23;20214;-93
2024/03/26 01:03:08;;;;;;;11.43;3.75;;;;;;;;;;6187914;23;20005;-93
2024/03/26 01:05:33;;;;;;;11.38;3.47;;;;;;;;;;6187936;23;20012;-93
2024/03/26 01:07:59;;;;;;;17.52;3.85;;;;;;;;;;6187726;23;20004;-93
2024/03/26 01:10:24;;;;;;;14.95;5.13;;;;;;;;;;6188112;23;20060;-92
2024/03/26 01:12:50;;;;;;;13.73;4.03;;;;;;;;;;6212909;23;20327;-94
2024/03/26 01:15:15;;;;;;;7.78;2.92;;;;;;;;;;6188367;23;20677;-94
2024/03/26 01:17:40;;;;;;;12.93;3.28;;;;;;;;;;6188395;23;20083;-93
2024/03/26 01:20:06;;;;;;;8.85;3.10;;;;;;;;;;6188318;23;20485;-94
2024/03/26 01:22:31;;;;;;;10.02;4.15;;;;;;;;;;6187659;23;20374;-94
2024/03/26 01:24:56;;;;;;;10.23;3.55;;;;;;;;;;6214316;23;19996;-94
2024/03/26 01:27:21;;;;;;;8.63;3.03;;;;;;;;;;6188495;23;20085;-94
2024/03/26 01:29:47;;;;;;;6.95;2.70;;;;;;;;;;6215130;23;20242;-95
2024/03/26 01:32:12;;;;;;;8.05;3.08;;;;;;;;;;6214855;23;19996;-94
2024/03/26 01:34:37;;;;;;;11.30;3.63;;;;;;;;;;6188723;23;19996;-94
2024/03/26 01:37:02;;;;;;;11.53;4.20;;;;;;;;;;6212936;23;20227;-94
2024/03/26 01:39:28;;;;;;;10.27;3.10;;;;;;;;;;6188225;23;20233;-94
2024/03/26 01:41:53;;;;;;;14.63;3.63;;;;;;;;;;6213819;23;20083;-94
2024/03/26 01:44:18;;;;;;;8.47;3.23;;;;;;;;;;6213699;23;20000;-93
2024/03/26 01:46:43;;;;;;;13.07;3.93;;;;;;;;;;6188322;23;20246;-93
2024/03/26 01:49:09;;;;;;;11.82;3.53;;;;;;;;;;6215262;23;20218;-93
2024/03/26 01:51:35;;;;;;;9.77;3.20;;;;;;;;;;6188457;23;20009;-94
2024/03/26 01:54:02;;;;;;;9.32;3.35;;;;;;;;;;6188562;23;19996;-95
2024/03/26 01:56:29;;;;;;;12.88;3.70;;;;;;;;;;6188771;23;20008;-93
2024/03/26 01:58:54;;;;;;;12.50;3.70;;;;;;;;;;6188541;23;20004;-94
2024/03/26 02:01:20;;;;;;;10.90;4.25;;;;;;;;;;6188800;23;20391;-94
2024/03/26 02:03:45;;;;;;;7.53;3.50;;;;;;;;;;6188469;23;20423;-94
2024/03/26 02:06:10;;;;;;;19.25;5.28;;;;;;;;;;6188932;23;20009;-94
2024/03/26 02:08:35;;;;;;;11.13;3.65;;;;;;;;;;6188401;23;19997;-94
2024/03/26 02:11:01;;;;;;;14.30;3.60;;;;;;;;;;6188801;23;19997;-92
2024/03/26 02:13:26;;;;;;;14.73;4.28;;;;;;;;;;6189122;23;20005;-95
2024/03/26 02:15:51;;;;;;;8.20;3.27;;;;;;;;;;6189320;23;20415;-94
2024/03/26 02:18:16;;;;;;;9.13;4.15;;;;;;;;;;6188826;23;20735;-94
2024/03/26 02:20:42;;;;;;;12.47;4.17;;;;;;;;;;6189103;23;20320;-94
2024/03/26 02:23:07;;;;;;;13.90;3.05;;;;;;;;;;6190246;23;20815;-94
2024/03/26 02:25:32;;;;;;;13.20;4.00;;;;;;;;;;6190226;23;20016;-95
2024/03/26 02:27:57;;;;;;;11.75;3.70;;;;;;;;;;6190277;23;20027;-94
2024/03/26 02:30:23;;;;;;;16.97;4.47;;;;;;;;;;6190501;23;20039;-94
2024/03/26 02:32:48;;;;;;;10.32;3.53;;;;;;;;;;6190423;23;20210;-94
2024/03/26 02:35:13;;;;;;;13.10;4.10;;;;;;;;;;6190884;23;19992;-93
2024/03/26 02:37:38;;;;;;;13.73;4.68;;;;;;;;;;6189752;23;20005;-93
2024/03/26 02:40:04;;;;;;;9.10;3.80;;;;;;;;;;6190380;23;20471;-94
2024/03/26 02:42:29;;;;;;;10.93;4.03;;;;;;;;;;6189937;23;20004;-93
2024/03/26 02:44:54;;;;;;;11.15;3.45;;;;;;;;;;6190023;23;20412;-94
2024/03/26 02:47:20;;;;;;;12.15;3.55;;;;;;;;;;6189668;23;20051;-94
2024/03/26 02:49:45;;;;;;;13.53;3.80;;;;;;;;;;6216196;23;20001;-93
2024/03/26 02:52:10;;;;;;;9.43;3.20;;;;;;;;;;6216376;23;20272;-94
2024/03/26 02:54:35;;;;;;;13.63;3.77;;;;;;;;;;6189743;23;20043;-94
2024/03/26 02:57:01;;;;;;;8.82;3.30;;;;;;;;;;6189130;23;20222;-94
2024/03/26 02:59:26;;;;;;;13.18;3.85;;;;;;;;;;6189410;23;19997;-92
2024/03/26 03:01:51;;;;;;;11.40;3.50;;;;;;;;;;6214784;23;20431;-94
2024/03/26 03:04:16;;;;;;;12.80;3.33;;;;;;;;;;6189598;23;20218;-94
2024/03/26 03:06:41;;;;;;;6.38;3.20;;;;;;;;;;6189467;23;20254;-93
2024/03/26 03:09:07;;;;;;;12.67;3.57;;;;;;;;;;6189433;23;20007;-94
2024/03/26 03:11:33;;;;;;;11.75;3.53;;;;;;;;;;6189222;23;20233;-94
2024/03/26 03:13:58;;;;;;;14.33;4.20;;;;;;;;;;6189263;23;19997;-94
2024/03/26 03:16:23;;;;;;;8.43;3.05;;;;;;;;;;6189510;23;20230;-94
2024/03/26 03:18:48;;;;;;;14.25;4.72;;;;;;;;;;6189185;23;19997;-94
2024/03/26 03:21:13;;;;;;;10.90;4.47;;;;;;;;;;6189776;23;20067;-94
2024/03/26 03:23:39;;;;;;;11.15;3.58;;;;;;;;;;6189730;23;20416;-93
2024/03/26 03:26:04;;;;;;;10.10;3.77;;;;;;;;;;6189118;23;20008;-94
2024/03/26 03:28:29;;;;;;;11.93;4.43;;;;;;;;;;6189001;23;20535;-93
2024/03/26 03:30:55;;;;;;;13.30;4.15;;;;;;;;;;6215857;23;20000;-93
2024/03/26 03:33:20;;;;;;;6.60;3.53;;;;;;;;;;6215647;23;20131;-93
2024/03/26 03:35:45;;;;;;;9.37;3.23;;;;;;;;;;6189484;23;20227;-93
2024/03/26 03:38:11;;;;;;;8.68;3.38;;;;;;;;;;6215491;23;20218;-93
2024/03/26 03:40:36;;;;;;;8.43;3.40;;;;;;;;;;6216242;23;19996;-92
2024/03/26 03:43:01;;;;;;;8.25;4.43;;;;;;;;;;6189413;23;20223;-94
2024/03/26 03:45:28;;;;;;;9.10;3.33;;;;;;;;;;6189039;23;20312;-94
2024/03/26 03:47:53;;;;;;;10.68;3.85;;;;;;;;;;6188909;23;20001;-91
2024/03/26 03:50:19;;;;;;;13.45;3.92;;;;;;;;;;6189388;23;20001;-93
2024/03/26 03:52:45;;;;;;;11.35;3.42;;;;;;;;;;6189930;23;20011;-93
2024/03/26 03:55:10;;;;;;;9.90;3.65;;;;;;;;;;6189651;23;20000;-92
2024/03/26 03:57:35;;;;;;;8.43;3.77;;;;;;;;;;6188917;23;19996;-92
2024/03/26 04:00:00;;;;;;;11.90;3.87;;;;;;;;;;6189396;23;20229;-92
2024/03/26 04:02:25;;;;;;;9.70;3.75;;;;;;;;;;6188857;23;20237;-94
2024/03/26 04:04:51;;;;;;;11.10;3.08;;;;;;;;;;6188752;23;20075;-94
2024/03/26 04:07:16;;;;;;;9.43;3.47;;;;;;;;;;6189018;23;20004;-93
2024/03/26 04:09:41;;;;;;;9.27;3.45;;;;;;;;;;6188724;23;20226;-93
2024/03/26 04:12:06;;;;;;;11.05;3.58;;;;;;;;;;6188605;23;20008;-94
2024/03/26 04:14:33;;;;;;;8.90;3.15;;;;;;;;;;6188812;23;20463;-93
2024/03/26 04:16:58;;;;;;;15.57;3.65;;;;;;;;;;6214588;23;20000;-94
2024/03/26 04:19:24;;;;;;;9.13;3.40;;;;;;;;;;6188667;23;20416;-94
2024/03/26 04:21:49;;;;;;;7.10;3.30;;;;;;;;;;6215271;23;20230;-93
2024/03/26 04:24:14;;;;;;;9.93;3.53;;;;;;;;;;6189051;23;20000;-94
2024/03/26 04:26:39;;;;;;;9.63;3.33;;;;;;;;;;6213656;23;20264;-96
2024/03/26 04:29:05;;;;;;;13.83;3.80;;;;;;;;;;6214907;23;20293;-94
2024/03/26 04:31:30;;;;;;;12.73;3.70;;;;;;;;;;6215155;23;20265;-95
2024/03/26 04:33:55;;;;;;;7.82;3.05;;;;;;;;;;6188329;23;20223;-95
2024/03/26 04:36:20;;;;;;;10.90;3.43;;;;;;;;;;6188687;23;20004;-94
2024/03/26 04:38:45;;;;;;;15.57;3.50;;;;;;;;;;6188758;23;20230;-93
2024/03/26 04:41:11;;;;;;;15.33;5.53;;;;;;;;;;6215525;23;20081;-93
2024/03/26 04:43:36;;;;;;;9.52;4.18;;;;;;;;;;6214992;23;20249;-93
2024/03/26 04:46:01;;;;;;;12.50;4.45;;;;;;;;;;6188793;23;20428;-94
2024/03/26 04:48:26;;;;;;;13.77;3.40;;;;;;;;;;6213943;23;20080;-93
2024/03/26 04:50:52;;;;;;;13.67;4.07;;;;;;;;;;6188714;23;20001;-93
2024/03/26 04:53:17;;;;;;;9.23;3.60;;;;;;;;;;6189719;23;20218;-94
2024/03/26 04:55:42;;;;;;;11.00;3.50;;;;;;;;;;6215969;23;20233;-93
2024/03/26 04:58:07;;;;;;;14.15;3.95;;;;;;;;;;6215547;23;20074;-93
2024/03/26 05:00:33;;;;;;;8.07;3.08;;;;;;;;;;6215662;23;19996;-93
2024/03/26 05:02:59;;;;;;;12.55;3.78;;;;;;;;;;6214520;23;20005;-94
2024/03/26 05:05:25;;;;;;;10.55;3.58;;;;;;;;;;6215993;23;19997;-93
2024/03/26 05:07:50;;;;;;;17.38;3.75;;;;;;;;;;6215900;23;20035;-93
2024/03/26 05:10:15;;;;;;;9.07;3.53;;;;;;;;;;6217935;23;19996;-93
2024/03/26 05:12:40;;;;;;;11.85;4.22;;;;;;;;;;6218174;23;20227;-93
2024/03/26 05:15:06;;;;;;;8.37;3.83;;;;;;;;;;6220474;23;20044;-94
2024/03/26 05:17:31;;;;;;;13.88;4.03;;;;;;;;;;6192433;23;20218;-93
2024/03/26 05:19:57;;;;;;;13.13;4.23;;;;;;;;;;6188489;23;20391;-93
2024/03/26 05:22:22;;;;;;;13.55;3.58;;;;;;;;;;6188492;23;20257;-93
2024/03/26 05:24:47;;;;;;;15.77;3.83;;;;;;;;;;6214341;23;20416;-94
2024/03/26 05:27:12;;;;;;;10.90;4.27;;;;;;;;;;6188041;23;20008;-93
2024/03/26 05:29:38;;;;;;;13.10;3.73;;;;;;;;;;6188134;23;20218;-93
2024/03/26 05:32:04;;;;;;;15.07;4.32;;;;;;;;;;6214680;23;20280;-94
2024/03/26 05:34:29;;;;;;;13.18;4.43;;;;;;;;;;6187460;23;20000;-92
2024/03/26 05:36:54;;;;;;;7.32;3.30;;;;;;;;;;6214085;23;20007;-93
2024/03/26 05:39:20;;;;;;;11.87;4.13;;;;;;;;;;6214747;23;20327;-93
2024/03/26 05:41:45;;;;;;;10.93;4.60;;;;;;;;;;6188014;23;20707;-91
2024/03/26 05:44:10;;;;;;;17.23;5.57;;;;;;;;;;6214562;23;20327;-91
2024/03/26 05:46:35;;;;;;;10.57;4.07;;;;;;;;;;6187726;23;20088;-93
2024/03/26 05:49:01;;;;;;;16.02;4.25;;;;;;;;;;6213969;23;20000;-92
2024/03/26 05:51:26;;;;;;;10.90;3.57;;;;;;;;;;6214594;23;19997;-92
2024/03/26 05:53:52;;;;;;;14.23;4.80;;;;;;;;;;6214579;23;20214;-94
2024/03/26 05:56:17;;;;;;;13.77;4.28;;;;;;;;;;6215947;23;20342;-91
2024/03/26 05:58:42;;;;;;;20.33;4.68;;;;;;;;;;6216592;23;19996;-93
2024/03/26 06:01:08;;;;;;;11.37;4.20;;;;;;;;;;6216536;23;20416;-93
2024/03/26 06:03:33;;;;;;;11.38;4.18;;;;;;;;;;6189476;23;20223;-92
2024/03/26 06:05:58;;;;;;;10.13;4.20;;;;;;;;;;6216125;23;20012;-92
2024/03/26 06:08:24;;;;;;;13.48;4.18;;;;;;;;;;6189836;23;20004;-92
2024/03/26 06:10:49;;;;;;;13.13;4.35;;;;;;;;;;6189597;23;20019;-93
2024/03/26 06:13:14;;;;;;;13.90;4.63;;;;;;;;;;6189618;23;20001;-92
2024/03/26 06:15:39;;;;;;;12.63;4.47;;;;;;;;;;6189539;23;20337;-93
2024/03/26 06:18:05;;;;;;;8.13;4.17;;;;;;;;;;6189341;23;20316;-91
2024/03/26 06:20:30;;;;;;;8.77;4.40;;;;;;;;;;6189401;23;20775;-92
2024/03/26 06:22:55;;;;;;;11.52;3.67;;;;;;;;;;6189882;23;20254;-93
2024/03/26 06:25:21;;;;;;;9.57;4.33;;;;;;;;;;6190029;23;20016;-93
2024/03/26 06:27:46;;;;;;;12.23;4.35;;;;;;;;;;6190026;23;20269;-93
2024/03/26 06:30:12;;;;;;;14.30;5.07;;;;;;;;;;6190015;23;19997;-94
2024/03/26 06:32:37;;;;;;;11.43;4.45;;;;;;;;;;6189908;23;20241;-93
2024/03/26 06:35:02;;;;;;;13.15;4.15;;;;;;;;;;6213916;23;20001;-94
2024/03/26 06:37:28;;;;;;;8.65;4.45;;;;;;;;;;6216263;23;20206;-93
2024/03/26 06:39:53;;;;;;;13.50;4.90;;;;;;;;;;6189862;23;20484;-93
2024/03/26 06:42:18;;;;;;;13.80;4.82;;;;;;;;;;6215003;23;20000;-93
2024/03/26 06:44:43;;;;;;;12.43;5.33;;;;;;;;;;6190085;23;19996;-93
2024/03/26 06:47:10;;;;;;;14.50;5.03;;;;;;;;;;6215791;23;20246;-93
2024/03/26 06:49:35;;;;;;;17.92;4.55;;;;;;;;;;6189085;23;20008;-94
2024/03/26 06:52:02;;;;;;;9.73;4.38;;;;;;;;;;6216390;23;20450;-93
2024/03/26 06:54:27;;;;;;;11.45;4.03;;;;;;;;;;6216550;23;19992;-93
2024/03/26 06:56:52;;;;;;;11.77;4.22;;;;;;;;;;6216374;23;20058;-93
2024/03/26 06:59:17;;;;;;;8.70;4.10;;;;;;;;;;6189580;23;20079;-93
2024/03/26 07:01:43;;;;;;;16.45;4.38;;;;;;;;;;6189464;23;20338;-92
2024/03/26 07:04:08;;;;;;;11.17;4.83;;;;;;;;;;6215626;23;19996;-93
2024/03/26 07:06:33;;;;;;;14.93;4.22;;;;;;;;;;6215144;23;20258;-94
2024/03/26 07:08:58;;;;;;;12.52;4.00;;;;;;;;;;6189362;23;20004;-93
2024/03/26 07:11:24;;;;;;;10.10;3.70;;;;;;;;;;6189372;23;20000;-94
2024/03/26 07:13:49;;;;;;;10.35;4.47;;;;;;;;;;6188870;23;20001;-93
2024/03/26 07:16:14;;;;;;;10.80;4.30;;;;;;;;;;6214055;23;20308;-93
2024/03/26 07:18:40;;;;;;;13.85;4.65;;;;;;;;;;6189574;23;20740;-93
2024/03/26 07:21:05;;;;;;;15.27;4.32;;;;;;;;;;6189179;23;20004;-93
2024/03/26 07:23:30;;;;;;;12.13;4.07;;;;;;;;;;6189405;23;20413;-94
2024/03/26 07:25:55;;;;;;;6.68;3.63;;;;;;;;;;6188841;23;20439;-93
2024/03/26 07:28:21;;;;;;;17.43;4.43;;;;;;;;;;6214092;23;20496;-93
2024/03/26 07:30:46;;;;;;;11.50;4.60;;;;;;;;;;6188792;23;20273;-94
2024/03/26 07:33:12;;;;;;;10.40;4.43;;;;;;;;;;6189151;23;20431;-94
2024/03/26 07:35:37;;;;;;;12.13;4.40;;;;;;;;;;6189120;23;20001;-93
2024/03/26 07:38:02;;;;;;;8.33;3.90;;;;;;;;;;6188858;23;20372;-93
2024/03/26 07:40:28;;;;;;;11.32;4.30;;;;;;;;;;6188735;23;20627;-94
2024/03/26 07:42:54;;;;;;;12.65;4.25;;;;;;;;;;6215180;23;20335;-94
2024/03/26 07:45:19;;;;;;;9.93;4.38;;;;;;;;;;6189023;23;20009;-93
2024/03/26 07:47:45;;;;;;;17.38;4.60;;;;;;;;;;6215509;23;20411;-93
2024/03/26 07:50:10;;;;;;;15.95;5.38;;;;;;;;;;6215396;23;20327;-94
2024/03/26 07:52:35;;;;;;;8.30;5.03;;;;;;;;;;6188860;23;20005;-93
2024/03/26 07:55:01;;;;;;;13.40;4.40;;;;;;;;;;6188445;23;20527;-94
2024/03/26 07:57:26;;;;;;;12.55;4.03;;;;;;;;;;6213786;23;20222;-93
2024/03/26 07:59:51;;;;;;;8.88;3.33;;;;;;;;;;6188304;23;20005;-94
2024/03/26 08:02:17;;;;;;;10.93;4.20;;;;;;;;;;6188675;23;20083;-93
2024/03/26 08:04:43;;;;;;;16.15;5.00;;;;;;;;;;6188681;23;20079;-94
2024/03/26 08:07:08;;;;;;;9.13;3.90;;;;;;;;;;6188540;23;20039;-94
2024/03/26 08:09:34;;;;;;;14.70;4.55;;;;;;;;;;6188705;23;19992;-93
2024/03/26 08:11:59;;;;;;;16.63;5.22;;;;;;;;;;6189383;23;20008;-92
2024/03/26 08:14:24;;;;;;;16.77;4.90;;;;;;;;;;6214920;23;20004;-92
2024/03/26 08:16:51;;;;;;;12.13;4.75;;;;;;;;;;6191808;23;20254;-92
2024/03/26 08:19:16;;;;;;;16.52;5.00;;;;;;;;;;6191651;23;20008;-91
2024/03/26 08:21:41;;;;;;;8.83;4.00;;;;;;;;;;6220103;23;19988;-94
2024/03/26 08:24:06;;;;;;;10.30;4.43;;;;;;;;;;6192926;23;20326;-94
2024/03/26 08:26:32;;;;;;;11.68;4.00;;;;;;;;;;6190345;23;20282;-95
2024/03/26 08:28:58;;;;;;;9.43;3.70;;;;;;;;;;6189470;23;20007;-94
2024/03/26 08:31:24;;;;;;;12.38;4.60;;;;;;;;;;6187267;23;20008;-95
2024/03/26 08:33:49;;;;;;;12.88;4.53;;;;;;;;;;6213206;23;19997;-93
2024/03/26 08:36:14;;;;;;;12.38;4.53;;;;;;;;;;6184072;23;20471;-95
2024/03/26 08:38:40;;;;;;;11.88;4.32;;;;;;;;;;6182065;23;20279;-94
2024/03/26 08:41:05;;;;;;;12.55;4.50;;;;;;;;;;6181995;23;20019;-91
2024/03/26 08:43:31;;;;;;;8.40;3.67;;;;;;;;;;6209326;23;20071;-93
2024/03/26 08:45:56;;;;;;;8.00;3.83;;;;;;;;;;6212012;23;20004;-93
2024/03/26 08:48:21;;;;;;;14.18;4.15;;;;;;;;;;6212231;23;20327;-93
2024/03/26 08:50:48;;;;;;;21.98;4.20;;;;;;;;;;6212409;23;19993;-91
2024/03/26 08:53:13;;;;;;;11.65;4.07;;;;;;;;;;6210410;23;20083;-94
2024/03/26 08:55:38;;;;;;;8.27;4.25;;;;;;;;;;6215528;23;20000;-91
2024/03/26 08:58:03;;;;;;;13.07;4.83;;;;;;;;;;6212862;23;20419;-90
2024/03/26 09:00:29;;;;;;;10.93;3.90;;;;;;;;;;6211133;23;20691;-91
2024/03/26 09:02:54;;;;;;;7.30;4.13;;;;;;;;;;6213706;23;19997;-90
2024/03/26 09:05:19;;;;;;;19.15;5.35;;;;;;;;;;6186567;23;20250;-91
2024/03/26 09:07:44;;;;;;;15.43;4.68;;;;;;;;;;6213424;23;20005;-92
2024/03/26 09:10:10;;;;;;;9.80;4.57;;;;;;;;;;6187199;23;20065;-92
2024/03/26 09:12:36;;;;;;;13.30;4.50;;;;;;;;;;6213906;23;20001;-89
2024/03/26 09:15:01;;;;;;;14.15;4.68;;;;;;;;;;6213711;23;19997;-91
2024/03/26 09:17:26;;;;;;;9.15;4.10;;;;;;;;;;6187118;23;20004;-92
2024/03/26 09:19:51;;;;;;;16.58;4.47;;;;;;;;;;6213520;23;20087;-93
2024/03/26 09:22:20;;;;;;;13.03;4.53;;;;;;;;;;6213632;23;19997;-96
2024/03/26 09:24:45;;;;;;;10.75;4.88;;;;;;;;;;6188235;23;20249;-96
2024/03/26 09:27:10;;;;;;;11.95;4.88;;;;;;;;;;6187778;23;20004;-94
2024/03/26 09:29:45;;;;;;;12.20;4.77;;;;;;;;;;6218665;23;22028;-95
2024/03/26 09:32:12;;;;;;;11.80;4.68;;;;;;;;;;6215557;23;20545;-93
2024/03/26 09:34:37;;;;;;;10.30;4.40;;;;;;;;;;6213941;23;20003;-94
2024/03/26 09:37:02;;;;;;;9.48;4.07;;;;;;;;;;6213995;23;20001;-95
2024/03/26 09:39:28;;;;;;;7.95;4.20;;;;;;;;;;6239005;23;19997;-92
2024/03/26 09:41:57;;;;;;;17.60;3.97;;;;;;;;;;6237387;23;20067;-91
2024/03/26 09:44:24;;;;;;;13.75;4.40;;;;;;;;;;6213708;23;20669;-90
2024/03/26 09:46:50;;;;;;;8.40;4.50;;;;;;;;;;6213500;23;20008;-92
2024/03/26 09:49:17;;;;;;;10.02;4.15;;;;;;;;;;6207027;23;20064;-91
2024/03/26 09:51:43;;;;;;;8.75;4.15;;;;;;;;;;6209223;23;20062;-92
2024/03/26 09:54:09;;;;;;;9.23;3.92;;;;;;;;;;6209866;23;20427;-92
2024/03/26 09:56:34;;;;;;;12.95;4.43;;;;;;;;;;6209964;23;20026;-91
2024/03/26 09:58:59;;;;;;;9.27;3.70;;;;;;;;;;6209805;23;20335;-91
2024/03/26 10:01:25;;;;;;;8.20;4.07;;;;;;;;;;6210327;23;20577;-91
2024/03/26 10:03:52;;;;;;;11.75;4.82;;;;;;;;;;6209452;23;20590;-91
2024/03/26 10:06:17;;;;;;;9.45;3.92;;;;;;;;;;6208880;23;20008;-91
2024/03/26 10:08:42;;;;;;;9.27;4.18;;;;;;;;;;6207691;23;20386;-93
2024/03/26 10:11:07;;;;;;;12.13;4.23;;;;;;;;;;6210559;23;20000;-91
2024/03/26 10:13:33;;;;;;;9.03;3.87;;;;;;;;;;6207998;23;20218;-91
2024/03/26 10:15:58;;;;;;;9.30;4.50;;;;;;;;;;6209995;23;20222;-95
2024/03/26 10:18:26;;;;;;;9.95;4.72;;;;;;;;;;6231621;23;20028;-96
2024/03/26 10:20:52;;;;;;;11.70;4.68;;;;;;;;;;6233568;23;20079;-90
2024/03/26 10:23:17;;;;;;;6.05;3.58;;;;;;;;;;6208854;23;20443;-89
2024/03/26 10:25:43;;;;;;;12.57;4.70;;;;;;;;;;6208004;23;20324;-90
2024/03/26 10:28:08;;;;;;;12.37;4.40;;;;;;;;;;6207685;23;20225;-91
2024/03/26 10:30:33;;;;;;;9.55;3.58;;;;;;;;;;6206821;23;20238;-91
2024/03/26 10:32:59;;;;;;;11.97;3.73;;;;;;;;;;6230950;23;20001;-92
2024/03/26 10:35:24;;;;;;;13.13;4.10;;;;;;;;;;6231581;23;20226;-92
2024/03/26 10:37:51;;;;;;;8.77;3.90;;;;;;;;;;6230877;22;20011;-92
2024/03/26 10:40:21;;;;;;;9.23;4.93;;;;;;;;;;6209921;23;20059;-93
2024/03/26 10:42:51;;;;;;;13.65;4.45;;;;;;;;;;6209916;23;20001;-92
2024/03/26 10:45:16;;;;;;;10.30;4.40;;;;;;;;;;6235513;23;20103;-93
2024/03/26 10:47:42;;;;;;;10.55;4.45;;;;;;;;;;6233386;22;20032;-92
2024/03/26 10:50:07;;;;;;;9.63;4.15;;;;;;;;;;6235930;23;20039;-92
2024/03/26 10:52:33;;;;;;;7.97;3.78;;;;;;;;;;6234831;23;20376;-92
2024/03/26 10:55:00;;;;;;;14.48;3.58;;;;;;;;;;6211294;23;20000;-90
2024/03/26 10:57:26;;;;;;;11.30;4.13;;;;;;;;;;6212506;23;20003;-90
2024/03/26 10:59:51;;;;;;;9.32;3.63;;;;;;;;;;6210131;23;20394;-90
2024/03/26 11:02:17;;;;;;;7.07;4.22;;;;;;;;;;6210188;23;20458;-90
2024/03/26 11:04:42;;;;;;;9.35;3.85;;;;;;;;;;6210590;23;20051;-91
2024/03/26 11:07:08;;;;;;;9.98;3.95;;;;;;;;;;6233999;22;20017;-91
2024/03/26 11:09:34;;;;;;;9.32;3.83;;;;;;;;;;6211243;23;20315;-91
2024/03/26 11:11:59;;;;;;;12.70;4.37;;;;;;;;;;6220678;23;20004;-90
2024/03/26 11:14:26;;;;;;;13.52;3.70;;;;;;;;;;6214385;23;20271;-93
2024/03/26 11:16:51;;;;;;;11.15;4.35;;;;;;;;;;6235010;22;20001;-91
2024/03/26 11:19:20;;;;;;;8.57;3.23;;;;;;;;;;6211138;23;20004;-91
2024/03/26 11:21:49;;;;;;;14.15;3.83;;;;;;;;;;6210724;23;20221;-91
2024/03/26 11:24:24;;;;;;;7.45;3.38;;;;;;;;;;6210434;23;19993;-90
2024/03/26 11:26:50;;;;;;;9.55;3.67;;;;;;;;;;6210407;23;20099;-94
2024/03/26 11:29:16;;;;;;;8.15;3.35;;;;;;;;;;6235887;23;19998;-93
2024/03/26 11:31:43;;;;;;;9.48;4.07;;;;;;;;;;6235213;23;20008;-92
2024/03/26 11:34:09;;;;;;;8.15;4.22;;;;;;;;;;6236592;23;19996;-94
2024/03/26 11:36:35;;;;;;;6.57;3.65;;;;;;;;;;6234525;22;20020;-93
2024/03/26 11:39:00;;;;;;;10.25;3.53;;;;;;;;;;6236138;23;20075;-93
2024/03/26 11:41:26;;;;;;;8.35;3.85;;;;;;;;;;6235703;23;20005;-94
2024/03/26 11:43:51;;;;;;;10.60;3.22;;;;;;;;;;6214844;23;20047;-91
2024/03/26 11:46:17;;;;;;;9.57;3.95;;;;;;;;;;6212470;23;20094;-93
2024/03/26 11:48:42;;;;;;;9.43;3.65;;;;;;;;;;6234819;23;20028;-92
2024/03/26 11:51:07;;;;;;;8.33;3.43;;;;;;;;;;6211106;23;20001;-92
2024/03/26 11:53:38;;;;;;;13.40;3.95;;;;;;;;;;6211318;23;20236;-94
2024/03/26 11:56:05;;;;;;;9.85;4.22;;;;;;;;;;6211031;23;20084;-94
2024/03/26 11:58:30;;;;;;;12.13;3.83;;;;;;;;;;6210557;23;19997;-94
2024/03/26 12:00:56;;;;;;;10.25;3.67;;;;;;;;;;6211721;23;20305;-93
2024/03/26 12:03:22;;;;;;;9.48;4.15;;;;;;;;;;6235809;23;20450;-92
2024/03/26 12:05:47;;;;;;;7.93;3.65;;;;;;;;;;6211817;23;20075;-93
2024/03/26 12:08:13;;;;;;;13.52;4.05;;;;;;;;;;6210973;23;20423;-93
2024/03/26 12:10:38;;;;;;;9.25;3.85;;;;;;;;;;6234421;23;20007;-94
2024/03/26 12:13:04;;;;;;;11.13;3.72;;;;;;;;;;6207820;23;20145;-93
2024/03/26 12:15:30;;;;;;;6.70;4.03;;;;;;;;;;6205420;23;20004;-92
2024/03/26 12:17:55;;;;;;;12.98;4.25;;;;;;;;;;6232406;22;20001;-93
2024/03/26 12:20:20;;;;;;;7.32;3.25;;;;;;;;;;6209542;23;20088;-94
2024/03/26 12:22:46;;;;;;;6.85;3.13;;;;;;;;;;6233105;23;20519;-93
2024/03/26 12:25:11;;;;;;;10.43;4.18;;;;;;;;;;6233660;23;20013;-93
2024/03/26 12:27:40;;;;;;;7.93;3.00;;;;;;;;;;6207105;23;20058;-94
2024/03/26 12:30:08;;;;;;;12.63;3.03;;;;;;;;;;6233630;23;20012;-92
2024/03/26 12:32:34;;;;;;;6.18;2.33;;;;;;;;;;6208750;23;19996;-92
2024/03/26 12:34:59;;;;;;;8.98;2.70;;;;;;;;;;6210255;23;19997;-93
2024/03/26 12:37:25;;;;;;;8.48;3.00;;;;;;;;;;6207402;23;20004;-92
2024/03/26 12:39:50;;;;;;;7.50;2.70;;;;;;;;;;6208023;23;20074;-92
2024/03/26 12:42:15;;;;;;;7.67;2.90;;;;;;;;;;6233149;23;20027;-94
2024/03/26 12:44:40;;;;;;;5.47;3.40;;;;;;;;;;6233038;23;20245;-95
2024/03/26 12:47:06;;;;;;;8.93;3.65;;;;;;;;;;6233121;22;20012;-94
2024/03/26 12:49:31;;;;;;;9.18;3.13;;;;;;;;;;6209604;23;20331;-94
2024/03/26 12:51:57;;;;;;;7.32;3.42;;;;;;;;;;6234049;23;20071;-96
2024/03/26 12:54:23;;;;;;;8.18;2.75;;;;;;;;;;6235519;23;19997;-92
2024/03/26 12:56:48;;;;;;;8.68;2.28;;;;;;;;;;6210050;23;20428;-94
2024/03/26 12:59:13;;;;;;;8.00;2.92;;;;;;;;;;6239453;23;20091;-94
2024/03/26 13:01:39;;;;;;;4.55;2.67;;;;;;;;;;6208789;23;20297;-92
2024/03/26 13:04:04;;;;;;;6.15;2.67;;;;;;;;;;6234364;23;19996;-93
2024/03/26 13:06:29;;;;;;;3.50;2.03;;;;;;;;;;6234919;22;20008;-92
2024/03/26 13:08:54;;;;;;;4.13;2.30;;;;;;;;;;6235791;23;20036;-93
2024/03/26 13:11:20;;;;;;;7.03;2.23;;;;;;;;;;6211493;23;20285;-92
2024/03/26 13:13:46;;;;;;;4.78;2.05;;;;;;;;;;6230448;23;20218;-91
2024/03/26 13:16:13;;;;;;;5.30;2.42;;;;;;;;;;6233432;22;20135;-92
2024/03/26 13:18:40;;;;;;;4.70;1.98;;;;;;;;;;6236701;23;20166;-95
2024/03/26 13:21:05;;;;;;;5.43;2.63;;;;;;;;;;6232533;23;20023;-92
2024/03/26 13:23:31;;;;;;;6.78;2.80;;;;;;;;;;6234503;23;20439;-92
2024/03/26 13:25:56;;;;;;;9.25;2.33;;;;;;;;;;6233634;23;20451;-90
2024/03/26 13:28:21;;;;;;;4.72;2.05;;;;;;;;;;6230647;23;20700;-93
2024/03/26 13:30:47;;;;;;;12.05;2.40;;;;;;;;;;6228628;23;20138;-93
2024/03/26 13:33:13;;;;;;;7.28;2.67;;;;;;;;;;6230503;23;20007;-94
2024/03/26 13:35:39;;;;;;;6.63;2.08;;;;;;;;;;6232148;23;20023;-95
2024/03/26 13:38:04;;;;;;;4.90;2.70;;;;;;;;;;6232723;23;20351;-94
2024/03/26 13:40:29;;;;;;;4.38;1.95;;;;;;;;;;6233137;23;20004;-94
2024/03/26 13:42:55;;;;;;;7.23;2.63;;;;;;;;;;6231936;23;19997;-91
2024/03/26 13:45:20;;;;;;;3.22;1.88;;;;;;;;;;6208185;23;20218;-91
2024/03/26 13:47:45;;;;;;;3.60;2.05;;;;;;;;;;6233127;22;20019;-92
2024/03/26 13:50:10;;;;;;;5.07;2.37;;;;;;;;;;6213667;23;20000;-92
2024/03/26 13:52:37;;;;;;;8.05;2.67;;;;;;;;;;6209750;23;20238;-92
2024/03/26 13:55:04;;;;;;;8.02;3.00;;;;;;;;;;6228403;23;20000;-92
2024/03/26 13:57:29;;;;;;;9.13;3.75;;;;;;;;;;6228844;22;20000;-96
2024/03/26 13:59:54;;;;;;;11.60;5.05;;;;;;;;;;6229684;23;20092;-96
2024/03/26 14:02:19;;;;;;;7.80;4.65;;;;;;;;;;6231471;23;19996;-91
2024/03/26 14:04:45;;;;;;;7.57;3.73;;;;;;;;;;6210891;23;20000;-94
2024/03/26 14:07:10;;;;;;;8.97;3.50;;;;;;;;;;6234406;22;20254;-91
2024/03/26 14:09:39;;;;;;;6.18;3.10;;;;;;;;;;6236632;23;20229;-96
2024/03/26 14:12:04;;;;;;;4.43;2.70;;;;;;;;;;6237198;23;20035;-92
2024/03/26 14:14:30;;;;;;;7.47;3.50;;;;;;;;;;6213416;23;19997;-93
2024/03/26 14:16:55;;;;;;;10.45;2.88;;;;;;;;;;6218440;23;20004;-96
2024/03/26 14:19:20;;;;;;;6.50;3.43;;;;;;;;;;6240749;23;20438;-95
2024/03/26 14:21:48;;;;;;;8.88;4.05;;;;;;;;;;6211315;23;20530;-94
2024/03/26 14:24:13;;;;;;;7.72;3.97;;;;;;;;;;6208434;23;20057;-94